sensor_id;sensor_type;location;lat;lon;timestamp;temperature;humidity
23116;DHT22;11727;52.134;5.052;2022-11-11T00:00:23;11.20;99.90
23116;DHT22;11727;52.134;5.052;2022-11-11T00:02:49;11.10;99.90
23116;DHT22;11727;52.134;5.052;2022-11-11T00:05:15;11.10;99.90
23116;DHT22;11727;52.134;5.052;2022-11-11T00:07:42;11.10;99.90
23116;DHT22;11727;52.134;5.052;2022-11-11T00:10:08;11.10;99.90
23116;DHT22;11727;52.134;5.052;2022-11-11T00:12:34;11.10;99.90
23116;DHT22;11727;52.134;5.052;2022-11-11T00:15:00;11.10;99.90
23116;DHT22;11727;52.134;5.052;2022-11-11T00:17:25;11.10;99.90
23116;DHT22;11727;52.134;5.052;2022-11-11T00:20:10;11.10;99.90
23116;DHT22;11727;52.134;5.052;2022-11-11T00:22:55;11.10;99.90
23116;DHT22;11727;52.134;5.052;2022-11-11T00:25:39;11.10;99.90
23116;DHT22;11727;52.134;5.052;2022-11-11T00:28:05;11.10;99.90
23116;DHT22;11727;52.134;5.052;2022-11-11T00:30:30;11.20;99.90
23116;DHT22;11727;52.134;5.052;2022-11-11T00:32:56;11.10;99.90
23116;DHT22;11727;52.134;5.052;2022-11-11T00:35:22;11.10;99.90
23116;DHT22;11727;52.134;5.052;2022-11-11T00:38:12;11.10;99.90
23116;DHT22;11727;52.134;5.052;2022-11-11T00:40:58;11.20;99.90
23116;DHT22;11727;52.134;5.052;2022-11-11T00:43:23;11.10;99.90
23116;DHT22;11727;52.134;5.052;2022-11-11T00:45:49;11.10;99.90
23116;DHT22;11727;52.134;5.052;2022-11-11T00:48:14;11.20;99.90
23116;DHT22;11727;52.134;5.052;2022-11-11T00:50:59;11.10;99.90
23116;DHT22;11727;52.134;5.052;2022-11-11T00:53:27;11.10;99.90
23116;DHT22;11727;52.134;5.052;2022-11-11T00:55:54;11.10;99.90
23116;DHT22;11727;52.134;5.052;2022-11-11T00:58:20;11.10;99.90
23116;DHT22;11727;52.134;5.052;2022-11-11T01:00:47;11.10;99.90
23116;DHT22;11727;52.134;5.052;2022-11-11T01:03:15;11.10;99.90
23116;DHT22;11727;52.134;5.052;2022-11-11T01:05:41;11.00;99.90
23116;DHT22;11727;52.134;5.052;2022-11-11T01:08:06;11.00;99.90
23116;DHT22;11727;52.134;5.052;2022-11-11T01:10:32;11.10;99.90
23116;DHT22;11727;52.134;5.052;2022-11-11T01:13:14;11.10;99.90
23116;DHT22;11727;52.134;5.052;2022-11-11T01:15:48;11.00;99.90
23116;DHT22;11727;52.134;5.052;2022-11-11T01:18:17;11.10;99.90
23116;DHT22;11727;52.134;5.052;2022-11-11T01:20:43;11.00;99.90
23116;DHT22;11727;52.134;5.052;2022-11-11T01:23:11;11.10;99.90
23116;DHT22;11727;52.134;5.052;2022-11-11T01:25:38;11.10;99.90
23116;DHT22;11727;52.134;5.052;2022-11-11T01:28:05;11.00;99.90
23116;DHT22;11727;52.134;5.052;2022-11-11T01:30:33;11.00;99.90
23116;DHT22;11727;52.134;5.052;2022-11-11T01:32:59;11.00;99.90
23116;DHT22;11727;52.134;5.052;2022-11-11T01:35:24;11.00;99.90
23116;DHT22;11727;52.134;5.052;2022-11-11T01:37:50;11.00;99.90
23116;DHT22;11727;52.134;5.052;2022-11-11T01:40:16;11.00;99.90
23116;DHT22;11727;52.134;5.052;2022-11-11T01:42:49;11.00;99.90
23116;DHT22;11727;52.134;5.052;2022-11-11T01:45:53;11.00;99.90
23116;DHT22;11727;52.134;5.052;2022-11-11T01:48:36;11.00;99.90
23116;DHT22;11727;52.134;5.052;2022-11-11T01:54:03;10.90;99.90
23116;DHT22;11727;52.134;5.052;2022-11-11T01:56:31;10.90;99.90
23116;DHT22;11727;52.134;5.052;2022-11-11T01:59:01;10.90;99.90
23116;DHT22;11727;52.134;5.052;2022-11-11T02:01:27;10.90;99.90
23116;DHT22;11727;52.134;5.052;2022-11-11T02:03:54;10.90;99.90
23116;DHT22;11727;52.134;5.052;2022-11-11T02:06:39;10.90;99.90
23116;DHT22;11727;52.134;5.052;2022-11-11T02:09:06;10.90;99.90
23116;DHT22;11727;52.134;5.052;2022-11-11T02:11:34;10.90;99.90
23116;DHT22;11727;52.134;5.052;2022-11-11T02:14:19;10.80;99.90
23116;DHT22;11727;52.134;5.052;2022-11-11T02:17:05;10.80;99.90
23116;DHT22;11727;52.134;5.052;2022-11-11T02:19:50;10.80;99.90
23116;DHT22;11727;52.134;5.052;2022-11-11T02:25:03;10.70;99.90
23116;DHT22;11727;52.134;5.052;2022-11-11T02:27:34;10.70;99.90
23116;DHT22;11727;52.134;5.052;2022-11-11T02:30:01;10.70;99.90
23116;DHT22;11727;52.134;5.052;2022-11-11T02:32:28;10.70;99.90
23116;DHT22;11727;52.134;5.052;2022-11-11T02:34:54;10.60;99.90
23116;DHT22;11727;52.134;5.052;2022-11-11T02:37:22;10.60;99.90
23116;DHT22;11727;52.134;5.052;2022-11-11T02:39:49;10.60;99.90
23116;DHT22;11727;52.134;5.052;2022-11-11T02:42:19;10.60;99.90
23116;DHT22;11727;52.134;5.052;2022-11-11T02:44:45;10.60;99.90
23116;DHT22;11727;52.134;5.052;2022-11-11T02:47:11;10.60;99.90
23116;DHT22;11727;52.134;5.052;2022-11-11T02:49:36;10.60;99.90
23116;DHT22;11727;52.134;5.052;2022-11-11T02:52:02;10.50;99.90
23116;DHT22;11727;52.134;5.052;2022-11-11T02:54:28;10.50;99.90
23116;DHT22;11727;52.134;5.052;2022-11-11T02:56:54;10.50;99.90
23116;DHT22;11727;52.134;5.052;2022-11-11T02:59:32;10.50;99.90
23116;DHT22;11727;52.134;5.052;2022-11-11T03:01:57;10.50;99.90
23116;DHT22;11727;52.134;5.052;2022-11-11T03:04:23;10.50;99.90
23116;DHT22;11727;52.134;5.052;2022-11-11T03:06:48;10.50;99.90
23116;DHT22;11727;52.134;5.052;2022-11-11T03:09:14;10.50;99.90
23116;DHT22;11727;52.134;5.052;2022-11-11T03:11:39;10.50;99.90
23116;DHT22;11727;52.134;5.052;2022-11-11T03:14:05;10.50;99.90
23116;DHT22;11727;52.134;5.052;2022-11-11T03:16:31;10.50;99.90
23116;DHT22;11727;52.134;5.052;2022-11-11T03:19:15;10.50;99.90
23116;DHT22;11727;52.134;5.052;2022-11-11T03:21:41;10.50;99.90
23116;DHT22;11727;52.134;5.052;2022-11-11T03:24:06;10.50;99.90
23116;DHT22;11727;52.134;5.052;2022-11-11T03:26:32;10.50;99.90
23116;DHT22;11727;52.134;5.052;2022-11-11T03:28:57;10.50;99.90
23116;DHT22;11727;52.134;5.052;2022-11-11T03:31:23;10.50;99.90
23116;DHT22;11727;52.134;5.052;2022-11-11T03:33:48;10.50;99.90
23116;DHT22;11727;52.134;5.052;2022-11-11T03:36:14;10.50;99.90
23116;DHT22;11727;52.134;5.052;2022-11-11T03:38:40;10.50;99.90
23116;DHT22;11727;52.134;5.052;2022-11-11T03:41:05;10.50;99.90
23116;DHT22;11727;52.134;5.052;2022-11-11T03:43:32;10.50;99.90
23116;DHT22;11727;52.134;5.052;2022-11-11T03:46:00;10.50;99.90
23116;DHT22;11727;52.134;5.052;2022-11-11T03:48:28;10.50;99.90
23116;DHT22;11727;52.134;5.052;2022-11-11T03:50:54;10.40;99.90
23116;DHT22;11727;52.134;5.052;2022-11-11T03:53:20;10.40;99.90
23116;DHT22;11727;52.134;5.052;2022-11-11T03:55:47;10.50;99.90
23116;DHT22;11727;52.134;5.052;2022-11-11T03:58:13;10.50;99.90
23116;DHT22;11727;52.134;5.052;2022-11-11T04:00:39;10.50;99.90
23116;DHT22;11727;52.134;5.052;2022-11-11T04:03:13;10.40;99.90
23116;DHT22;11727;52.134;5.052;2022-11-11T04:05:58;10.40;99.90
23116;DHT22;11727;52.134;5.052;2022-11-11T04:08:26;10.40;99.90
23116;DHT22;11727;52.134;5.052;2022-11-11T04:11:13;10.40;99.90
23116;DHT22;11727;52.134;5.052;2022-11-11T04:13:43;10.40;99.90
23116;DHT22;11727;52.134;5.052;2022-11-11T04:16:29;10.40;99.90
23116;DHT22;11727;52.134;5.052;2022-11-11T04:18:54;10.40;99.90
23116;DHT22;11727;52.134;5.052;2022-11-11T04:21:38;10.40;99.90
23116;DHT22;11727;52.134;5.052;2022-11-11T04:24:15;10.40;99.90
23116;DHT22;11727;52.134;5.052;2022-11-11T04:27:02;10.40;99.90
23116;DHT22;11727;52.134;5.052;2022-11-11T04:29:28;10.50;99.90
23116;DHT22;11727;52.134;5.052;2022-11-11T04:32:09;10.50;99.90
23116;DHT22;11727;52.134;5.052;2022-11-11T04:34:55;10.50;99.90
23116;DHT22;11727;52.134;5.052;2022-11-11T04:37:21;10.50;99.90
23116;DHT22;11727;52.134;5.052;2022-11-11T04:39:47;10.50;99.90
23116;DHT22;11727;52.134;5.052;2022-11-11T04:42:32;10.50;99.90
23116;DHT22;11727;52.134;5.052;2022-11-11T04:44:58;10.50;99.90
23116;DHT22;11727;52.134;5.052;2022-11-11T04:50:21;10.50;99.90
23116;DHT22;11727;52.134;5.052;2022-11-11T04:52:47;10.50;99.90
23116;DHT22;11727;52.134;5.052;2022-11-11T04:55:13;10.40;99.90
23116;DHT22;11727;52.134;5.052;2022-11-11T04:57:57;10.40;99.90
23116;DHT22;11727;52.134;5.052;2022-11-11T05:00:23;10.40;99.90
23116;DHT22;11727;52.134;5.052;2022-11-11T05:02:52;10.40;99.90
23116;DHT22;11727;52.134;5.052;2022-11-11T05:05:37;10.40;99.90
23116;DHT22;11727;52.134;5.052;2022-11-11T05:08:21;10.40;99.90
23116;DHT22;11727;52.134;5.052;2022-11-11T05:11:05;10.30;99.90
23116;DHT22;11727;52.134;5.052;2022-11-11T05:13:31;10.30;99.90
23116;DHT22;11727;52.134;5.052;2022-11-11T05:16:18;10.30;99.90
23116;DHT22;11727;52.134;5.052;2022-11-11T05:19:03;10.20;99.90
23116;DHT22;11727;52.134;5.052;2022-11-11T05:21:47;10.20;99.90
23116;DHT22;11727;52.134;5.052;2022-11-11T05:24:13;10.20;99.90
23116;DHT22;11727;52.134;5.052;2022-11-11T05:26:58;10.20;99.90
23116;DHT22;11727;52.134;5.052;2022-11-11T05:29:23;10.10;99.90
23116;DHT22;11727;52.134;5.052;2022-11-11T05:31:49;10.10;99.90
23116;DHT22;11727;52.134;5.052;2022-11-11T05:34:14;10.10;99.90
23116;DHT22;11727;52.134;5.052;2022-11-11T05:36:40;10.10;99.90
23116;DHT22;11727;52.134;5.052;2022-11-11T05:39:05;10.00;99.90
23116;DHT22;11727;52.134;5.052;2022-11-11T05:41:31;10.00;99.90
23116;DHT22;11727;52.134;5.052;2022-11-11T05:43:56;10.00;99.90
23116;DHT22;11727;52.134;5.052;2022-11-11T05:46:22;9.90;99.90
23116;DHT22;11727;52.134;5.052;2022-11-11T05:48:47;9.90;99.90
23116;DHT22;11727;52.134;5.052;2022-11-11T05:51:31;9.90;99.90
23116;DHT22;11727;52.134;5.052;2022-11-11T05:53:57;9.90;99.90
23116;DHT22;11727;52.134;5.052;2022-11-11T05:56:22;9.90;99.90
23116;DHT22;11727;52.134;5.052;2022-11-11T05:58:48;9.90;99.90
23116;DHT22;11727;52.134;5.052;2022-11-11T06:01:14;9.90;99.90
23116;DHT22;11727;52.134;5.052;2022-11-11T06:03:39;9.90;99.90
23116;DHT22;11727;52.134;5.052;2022-11-11T06:06:05;9.90;99.90
23116;DHT22;11727;52.134;5.052;2022-11-11T06:08:31;9.90;99.90
23116;DHT22;11727;52.134;5.052;2022-11-11T06:10:56;9.90;99.90
23116;DHT22;11727;52.134;5.052;2022-11-11T06:13:23;9.90;99.90
23116;DHT22;11727;52.134;5.052;2022-11-11T06:15:48;9.90;99.90
23116;DHT22;11727;52.134;5.052;2022-11-11T06:18:14;9.90;99.90
23116;DHT22;11727;52.134;5.052;2022-11-11T06:20:39;9.90;99.90
23116;DHT22;11727;52.134;5.052;2022-11-11T06:23:05;9.90;99.90
23116;DHT22;11727;52.134;5.052;2022-11-11T06:25:32;9.90;99.90
23116;DHT22;11727;52.134;5.052;2022-11-11T06:28:17;9.90;99.90
23116;DHT22;11727;52.134;5.052;2022-11-11T06:30:44;9.90;99.90
23116;DHT22;11727;52.134;5.052;2022-11-11T06:33:10;9.90;99.90
23116;DHT22;11727;52.134;5.052;2022-11-11T06:35:36;9.90;99.90
23116;DHT22;11727;52.134;5.052;2022-11-11T06:38:03;9.90;99.90
23116;DHT22;11727;52.134;5.052;2022-11-11T06:40:30;9.90;99.90
23116;DHT22;11727;52.134;5.052;2022-11-11T06:42:59;9.90;99.90
23116;DHT22;11727;52.134;5.052;2022-11-11T06:45:26;9.90;99.90
23116;DHT22;11727;52.134;5.052;2022-11-11T06:47:52;9.90;99.90
23116;DHT22;11727;52.134;5.052;2022-11-11T06:50:18;9.90;99.90
23116;DHT22;11727;52.134;5.052;2022-11-11T06:52:44;9.90;99.90
23116;DHT22;11727;52.134;5.052;2022-11-11T06:55:10;9.90;99.90
23116;DHT22;11727;52.134;5.052;2022-11-11T06:57:36;9.90;99.90
23116;DHT22;11727;52.134;5.052;2022-11-11T07:00:06;9.90;99.90
23116;DHT22;11727;52.134;5.052;2022-11-11T07:02:32;9.90;99.90
23116;DHT22;11727;52.134;5.052;2022-11-11T07:04:58;9.90;99.90
23116;DHT22;11727;52.134;5.052;2022-11-11T07:07:24;9.90;99.90
23116;DHT22;11727;52.134;5.052;2022-11-11T07:09:50;9.90;99.90
23116;DHT22;11727;52.134;5.052;2022-11-11T07:12:16;9.90;99.90
23116;DHT22;11727;52.134;5.052;2022-11-11T07:14:42;9.90;99.90
23116;DHT22;11727;52.134;5.052;2022-11-11T07:17:07;10.00;99.90
23116;DHT22;11727;52.134;5.052;2022-11-11T07:19:33;10.00;99.90
23116;DHT22;11727;52.134;5.052;2022-11-11T07:21:58;10.00;99.90
23116;DHT22;11727;52.134;5.052;2022-11-11T07:24:24;10.00;99.90
23116;DHT22;11727;52.134;5.052;2022-11-11T07:26:49;9.90;99.90
23116;DHT22;11727;52.134;5.052;2022-11-11T07:29:15;10.00;99.90
23116;DHT22;11727;52.134;5.052;2022-11-11T07:31:41;10.00;99.90
23116;DHT22;11727;52.134;5.052;2022-11-11T07:34:07;10.00;99.90
23116;DHT22;11727;52.134;5.052;2022-11-11T07:36:33;10.00;99.90
23116;DHT22;11727;52.134;5.052;2022-11-11T07:38:58;10.00;99.90
23116;DHT22;11727;52.134;5.052;2022-11-11T07:41:24;10.00;99.90
23116;DHT22;11727;52.134;5.052;2022-11-11T07:43:50;10.00;99.90
23116;DHT22;11727;52.134;5.052;2022-11-11T07:46:15;10.00;99.90
23116;DHT22;11727;52.134;5.052;2022-11-11T07:48:41;10.00;99.90
23116;DHT22;11727;52.134;5.052;2022-11-11T07:51:06;10.00;99.90
23116;DHT22;11727;52.134;5.052;2022-11-11T07:53:32;10.00;99.90
23116;DHT22;11727;52.134;5.052;2022-11-11T07:55:58;10.00;99.90
23116;DHT22;11727;52.134;5.052;2022-11-11T07:58:23;10.00;99.90
23116;DHT22;11727;52.134;5.052;2022-11-11T08:00:49;10.00;99.90
23116;DHT22;11727;52.134;5.052;2022-11-11T08:03:14;10.10;99.90
23116;DHT22;11727;52.134;5.052;2022-11-11T08:05:46;10.00;99.90
23116;DHT22;11727;52.134;5.052;2022-11-11T08:08:12;10.10;99.90
23116;DHT22;11727;52.134;5.052;2022-11-11T08:10:38;10.10;99.90
23116;DHT22;11727;52.134;5.052;2022-11-11T08:13:03;10.10;99.90
23116;DHT22;11727;52.134;5.052;2022-11-11T08:15:47;10.10;99.90
23116;DHT22;11727;52.134;5.052;2022-11-11T08:18:15;10.10;99.90
23116;DHT22;11727;52.134;5.052;2022-11-11T08:20:40;10.10;99.90
23116;DHT22;11727;52.134;5.052;2022-11-11T08:23:06;10.10;99.90
23116;DHT22;11727;52.134;5.052;2022-11-11T08:25:36;10.10;99.90
23116;DHT22;11727;52.134;5.052;2022-11-11T08:28:03;10.10;99.90
23116;DHT22;11727;52.134;5.052;2022-11-11T08:30:30;10.10;99.90
23116;DHT22;11727;52.134;5.052;2022-11-11T08:33:04;10.10;99.90
23116;DHT22;11727;52.134;5.052;2022-11-11T08:35:30;10.10;99.90
23116;DHT22;11727;52.134;5.052;2022-11-11T08:38:02;10.10;99.90
23116;DHT22;11727;52.134;5.052;2022-11-11T08:40:28;10.10;99.90
23116;DHT22;11727;52.134;5.052;2022-11-11T08:42:57;10.10;99.90
23116;DHT22;11727;52.134;5.052;2022-11-11T08:45:24;10.10;99.90
23116;DHT22;11727;52.134;5.052;2022-11-11T08:47:50;10.10;99.90
23116;DHT22;11727;52.134;5.052;2022-11-11T08:50:16;10.10;99.90
23116;DHT22;11727;52.134;5.052;2022-11-11T08:52:49;10.10;99.90
23116;DHT22;11727;52.134;5.052;2022-11-11T08:55:15;10.10;99.90
23116;DHT22;11727;52.134;5.052;2022-11-11T08:57:41;10.10;99.90
23116;DHT22;11727;52.134;5.052;2022-11-11T09:00:08;10.10;99.90
23116;DHT22;11727;52.134;5.052;2022-11-11T09:02:34;10.10;99.90
23116;DHT22;11727;52.134;5.052;2022-11-11T09:05:00;10.20;99.90
23116;DHT22;11727;52.134;5.052;2022-11-11T09:07:26;10.20;99.90
23116;DHT22;11727;52.134;5.052;2022-11-11T09:09:52;10.20;99.90
23116;DHT22;11727;52.134;5.052;2022-11-11T09:12:17;10.20;99.90
23116;DHT22;11727;52.134;5.052;2022-11-11T09:14:43;10.20;99.90
23116;DHT22;11727;52.134;5.052;2022-11-11T09:17:09;10.20;99.90
23116;DHT22;11727;52.134;5.052;2022-11-11T09:19:35;10.20;99.90
23116;DHT22;11727;52.134;5.052;2022-11-11T09:22:00;10.20;99.90
23116;DHT22;11727;52.134;5.052;2022-11-11T09:24:26;10.20;99.90
23116;DHT22;11727;52.134;5.052;2022-11-11T09:26:51;10.30;99.90
23116;DHT22;11727;52.134;5.052;2022-11-11T09:29:18;10.30;99.90
23116;DHT22;11727;52.134;5.052;2022-11-11T09:31:45;10.30;99.90
23116;DHT22;11727;52.134;5.052;2022-11-11T09:34:11;10.30;99.90
23116;DHT22;11727;52.134;5.052;2022-11-11T09:36:37;10.30;99.90
23116;DHT22;11727;52.134;5.052;2022-11-11T09:39:02;10.40;99.90
23116;DHT22;11727;52.134;5.052;2022-11-11T09:50:08;10.40;99.90
23116;DHT22;11727;52.134;5.052;2022-11-11T09:55:35;10.40;99.90
23116;DHT22;11727;52.134;5.052;2022-11-11T09:58:11;10.50;99.90
23116;DHT22;11727;52.134;5.052;2022-11-11T10:00:42;10.50;99.90
23116;DHT22;11727;52.134;5.052;2022-11-11T10:06:28;10.50;99.90
23116;DHT22;11727;52.134;5.052;2022-11-11T10:08:36;10.60;99.90
23116;DHT22;11727;52.134;5.052;2022-11-11T10:11:13;10.60;99.90
23116;DHT22;11727;52.134;5.052;2022-11-11T10:13:40;10.60;99.90
23116;DHT22;11727;52.134;5.052;2022-11-11T10:19:20;10.60;99.90
23116;DHT22;11727;52.134;5.052;2022-11-11T10:21:58;10.60;99.90
23116;DHT22;11727;52.134;5.052;2022-11-11T10:24:38;10.70;99.90
23116;DHT22;11727;52.134;5.052;2022-11-11T10:27:25;10.70;99.90
23116;DHT22;11727;52.134;5.052;2022-11-11T10:29:51;10.70;99.90
23116;DHT22;11727;52.134;5.052;2022-11-11T10:32:23;10.70;99.90
23116;DHT22;11727;52.134;5.052;2022-11-11T10:34:50;10.70;99.90
23116;DHT22;11727;52.134;5.052;2022-11-11T10:37:17;10.70;99.90
23116;DHT22;11727;52.134;5.052;2022-11-11T10:42:48;10.80;99.90
23116;DHT22;11727;52.134;5.052;2022-11-11T10:45:24;10.80;99.90
23116;DHT22;11727;52.134;5.052;2022-11-11T10:48:02;10.80;99.90
23116;DHT22;11727;52.134;5.052;2022-11-11T10:50:39;10.80;99.90
23116;DHT22;11727;52.134;5.052;2022-11-11T10:58:52;10.90;99.90
23116;DHT22;11727;52.134;5.052;2022-11-11T11:01:24;11.00;99.90
23116;DHT22;11727;52.134;5.052;2022-11-11T11:03:58;11.00;99.90
23116;DHT22;11727;52.134;5.052;2022-11-11T11:06:27;11.00;99.90
23116;DHT22;11727;52.134;5.052;2022-11-11T11:09:20;11.00;99.90
23116;DHT22;11727;52.134;5.052;2022-11-11T11:11:55;11.00;99.90
23116;DHT22;11727;52.134;5.052;2022-11-11T11:14:30;11.00;99.90
23116;DHT22;11727;52.134;5.052;2022-11-11T11:16:59;11.00;99.90
23116;DHT22;11727;52.134;5.052;2022-11-11T11:19:29;11.00;99.90
23116;DHT22;11727;52.134;5.052;2022-11-11T11:21:57;11.00;99.90
23116;DHT22;11727;52.134;5.052;2022-11-11T11:24:32;11.10;99.90
23116;DHT22;11727;52.134;5.052;2022-11-11T11:27:00;11.00;99.90
23116;DHT22;11727;52.134;5.052;2022-11-11T11:29:43;11.10;99.90
23116;DHT22;11727;52.134;5.052;2022-11-11T11:34:47;11.00;99.90
23116;DHT22;11727;52.134;5.052;2022-11-11T11:37:13;11.10;99.90
23116;DHT22;11727;52.134;5.052;2022-11-11T11:39:39;11.10;99.90
23116;DHT22;11727;52.134;5.052;2022-11-11T11:42:06;11.10;99.90
23116;DHT22;11727;52.134;5.052;2022-11-11T11:44:38;11.10;99.90
23116;DHT22;11727;52.134;5.052;2022-11-11T11:47:26;11.10;99.90
23116;DHT22;11727;52.134;5.052;2022-11-11T11:50:06;11.10;99.90
23116;DHT22;11727;52.134;5.052;2022-11-11T11:52:58;11.10;99.90
23116;DHT22;11727;52.134;5.052;2022-11-11T11:55:39;11.10;99.90
23116;DHT22;11727;52.134;5.052;2022-11-11T12:01:08;11.10;99.90
23116;DHT22;11727;52.134;5.052;2022-11-11T12:11:53;11.30;99.90
23116;DHT22;11727;52.134;5.052;2022-11-11T12:14:36;11.30;99.90
23116;DHT22;11727;52.134;5.052;2022-11-11T12:22:32;11.30;99.90
23116;DHT22;11727;52.134;5.052;2022-11-11T12:25:39;11.40;99.90
23116;DHT22;11727;52.134;5.052;2022-11-11T12:28:35;11.40;99.90
23116;DHT22;11727;52.134;5.052;2022-11-11T12:39:05;11.60;99.90
23116;DHT22;11727;52.134;5.052;2022-11-11T12:44:22;11.70;99.90
23116;DHT22;11727;52.134;5.052;2022-11-11T12:47:25;11.70;99.90
23116;DHT22;11727;52.134;5.052;2022-11-11T12:50:12;11.80;99.90
23116;DHT22;11727;52.134;5.052;2022-11-11T12:55:23;11.90;99.90
23116;DHT22;11727;52.134;5.052;2022-11-11T13:00:25;12.10;99.90
23116;DHT22;11727;52.134;5.052;2022-11-11T13:08:43;12.30;99.90
23116;DHT22;11727;52.134;5.052;2022-11-11T13:14:15;12.50;99.90
23116;DHT22;11727;52.134;5.052;2022-11-11T13:16:44;12.50;99.90
23116;DHT22;11727;52.134;5.052;2022-11-11T13:21:51;12.70;99.90
23116;DHT22;11727;52.134;5.052;2022-11-11T13:24:20;12.80;99.90
23116;DHT22;11727;52.134;5.052;2022-11-11T13:26:53;12.80;99.90
23116;DHT22;11727;52.134;5.052;2022-11-11T13:31:55;12.90;99.90
23116;DHT22;11727;52.134;5.052;2022-11-11T13:34:23;13.00;99.90
23116;DHT22;11727;52.134;5.052;2022-11-11T13:36:52;13.00;99.90
23116;DHT22;11727;52.134;5.052;2022-11-11T13:39:25;13.00;99.90
23116;DHT22;11727;52.134;5.052;2022-11-11T13:41:54;13.00;99.90
23116;DHT22;11727;52.134;5.052;2022-11-11T13:44:28;13.00;99.90
23116;DHT22;11727;52.134;5.052;2022-11-11T13:47:07;13.10;99.90
23116;DHT22;11727;52.134;5.052;2022-11-11T13:49:42;13.10;99.90
23116;DHT22;11727;52.134;5.052;2022-11-11T13:52:23;13.10;99.90
23116;DHT22;11727;52.134;5.052;2022-11-11T13:54:57;13.10;99.90
23116;DHT22;11727;52.134;5.052;2022-11-11T13:57:25;13.10;99.90
23116;DHT22;11727;52.134;5.052;2022-11-11T14:00:23;13.10;99.90
23116;DHT22;11727;52.134;5.052;2022-11-11T14:05:46;13.10;99.90
23116;DHT22;11727;52.134;5.052;2022-11-11T14:17:00;13.10;99.90
23116;DHT22;11727;52.134;5.052;2022-11-11T14:19:28;13.10;99.90
23116;DHT22;11727;52.134;5.052;2022-11-11T14:21:59;13.10;99.90
23116;DHT22;11727;52.134;5.052;2022-11-11T14:29:47;13.10;99.90
23116;DHT22;11727;52.134;5.052;2022-11-11T14:32:18;13.00;99.90
23116;DHT22;11727;52.134;5.052;2022-11-11T14:37:59;13.00;99.90
23116;DHT22;11727;52.134;5.052;2022-11-11T14:40:29;13.00;99.90
23116;DHT22;11727;52.134;5.052;2022-11-11T14:42:56;13.00;99.90
23116;DHT22;11727;52.134;5.052;2022-11-11T14:47:48;13.10;99.90
23116;DHT22;11727;52.134;5.052;2022-11-11T14:53:00;13.00;99.90
23116;DHT22;11727;52.134;5.052;2022-11-11T14:55:29;13.00;99.90
23116;DHT22;11727;52.134;5.052;2022-11-11T15:00:57;13.00;99.90
23116;DHT22;11727;52.134;5.052;2022-11-11T15:03:31;13.00;99.90
23116;DHT22;11727;52.134;5.052;2022-11-11T15:06:17;12.90;99.90
23116;DHT22;11727;52.134;5.052;2022-11-11T15:09:06;12.90;99.90
23116;DHT22;11727;52.134;5.052;2022-11-11T15:14:57;12.90;99.90
23116;DHT22;11727;52.134;5.052;2022-11-11T15:17:30;12.80;99.90
23116;DHT22;11727;52.134;5.052;2022-11-11T15:20:24;12.80;99.90
23116;DHT22;11727;52.134;5.052;2022-11-11T15:25:41;12.70;99.90
23116;DHT22;11727;52.134;5.052;2022-11-11T15:36:23;12.60;99.90
23116;DHT22;11727;52.134;5.052;2022-11-11T15:38:51;12.60;99.90
23116;DHT22;11727;52.134;5.052;2022-11-11T15:41:25;12.60;99.90
23116;DHT22;11727;52.134;5.052;2022-11-11T15:43:52;12.50;99.90
23116;DHT22;11727;52.134;5.052;2022-11-11T15:46:27;12.50;99.90
23116;DHT22;11727;52.134;5.052;2022-11-11T15:48:53;12.50;99.90
23116;DHT22;11727;52.134;5.052;2022-11-11T15:51:30;12.50;99.90
23116;DHT22;11727;52.134;5.052;2022-11-11T15:54:18;12.40;99.90
23116;DHT22;11727;52.134;5.052;2022-11-11T15:56:44;12.40;99.90
23116;DHT22;11727;52.134;5.052;2022-11-11T15:59:30;12.40;99.90
23116;DHT22;11727;52.134;5.052;2022-11-11T16:02:08;12.30;99.90
23116;DHT22;11727;52.134;5.052;2022-11-11T16:04:46;12.30;99.90
23116;DHT22;11727;52.134;5.052;2022-11-11T16:07:20;12.20;99.90
23116;DHT22;11727;52.134;5.052;2022-11-11T16:09:46;12.20;99.90
23116;DHT22;11727;52.134;5.052;2022-11-11T16:12:15;12.20;99.90
23116;DHT22;11727;52.134;5.052;2022-11-11T16:14:44;12.20;99.90
23116;DHT22;11727;52.134;5.052;2022-11-11T16:17:11;12.10;99.90
23116;DHT22;11727;52.134;5.052;2022-11-11T16:19:39;12.10;99.90
23116;DHT22;11727;52.134;5.052;2022-11-11T16:22:25;12.10;99.90
23116;DHT22;11727;52.134;5.052;2022-11-11T16:24:53;12.10;99.90
23116;DHT22;11727;52.134;5.052;2022-11-11T16:27:23;12.00;99.90
23116;DHT22;11727;52.134;5.052;2022-11-11T16:29:50;12.00;99.90
23116;DHT22;11727;52.134;5.052;2022-11-11T16:34:48;12.00;99.90
23116;DHT22;11727;52.134;5.052;2022-11-11T16:37:16;11.90;99.90
23116;DHT22;11727;52.134;5.052;2022-11-11T16:39:43;11.90;99.90
23116;DHT22;11727;52.134;5.052;2022-11-11T16:42:24;11.90;99.90
23116;DHT22;11727;52.134;5.052;2022-11-11T16:44:54;11.90;99.90
23116;DHT22;11727;52.134;5.052;2022-11-11T16:50:16;11.80;99.90
23116;DHT22;11727;52.134;5.052;2022-11-11T16:55:22;11.80;99.90
23116;DHT22;11727;52.134;5.052;2022-11-11T16:57:50;11.70;99.90
23116;DHT22;11727;52.134;5.052;2022-11-11T17:00:18;11.70;99.90
23116;DHT22;11727;52.134;5.052;2022-11-11T17:02:44;11.70;99.90
23116;DHT22;11727;52.134;5.052;2022-11-11T17:05:10;11.70;99.90
23116;DHT22;11727;52.134;5.052;2022-11-11T17:07:40;11.70;99.90
23116;DHT22;11727;52.134;5.052;2022-11-11T17:12:33;11.60;99.90
23116;DHT22;11727;52.134;5.052;2022-11-11T17:14:58;11.60;99.90
23116;DHT22;11727;52.134;5.052;2022-11-11T17:17:24;11.60;99.90
23116;DHT22;11727;52.134;5.052;2022-11-11T17:19:50;11.50;99.90
23116;DHT22;11727;52.134;5.052;2022-11-11T17:22:16;11.50;99.90
23116;DHT22;11727;52.134;5.052;2022-11-11T17:24:41;11.50;99.90
23116;DHT22;11727;52.134;5.052;2022-11-11T17:27:09;11.40;99.90
23116;DHT22;11727;52.134;5.052;2022-11-11T17:29:35;11.40;99.90
23116;DHT22;11727;52.134;5.052;2022-11-11T17:32:01;11.40;99.90
23116;DHT22;11727;52.134;5.052;2022-11-11T17:34:26;11.40;99.90
23116;DHT22;11727;52.134;5.052;2022-11-11T17:36:52;11.40;99.90
23116;DHT22;11727;52.134;5.052;2022-11-11T17:39:17;11.30;99.90
23116;DHT22;11727;52.134;5.052;2022-11-11T17:41:43;11.30;99.90
23116;DHT22;11727;52.134;5.052;2022-11-11T17:44:09;11.30;99.90
23116;DHT22;11727;52.134;5.052;2022-11-11T17:46:34;11.30;99.90
23116;DHT22;11727;52.134;5.052;2022-11-11T17:49:00;11.30;99.90
23116;DHT22;11727;52.134;5.052;2022-11-11T17:51:25;11.30;99.90
23116;DHT22;11727;52.134;5.052;2022-11-11T17:53:51;11.30;99.90
23116;DHT22;11727;52.134;5.052;2022-11-11T17:56:18;11.30;99.90
23116;DHT22;11727;52.134;5.052;2022-11-11T17:58:44;11.30;99.90
23116;DHT22;11727;52.134;5.052;2022-11-11T18:01:12;11.30;99.90
23116;DHT22;11727;52.134;5.052;2022-11-11T18:03:42;11.30;99.90
23116;DHT22;11727;52.134;5.052;2022-11-11T18:06:08;11.20;99.90
23116;DHT22;11727;52.134;5.052;2022-11-11T18:08:34;11.20;99.90